North Sandwich, New Hampshire
Current Conditions -  °F | °C
As of 6:15 PM on Sunday 21 Dec 2014 (Local Time) from K1P1 Reporting Station
Overcast Overcast  
Wind Chill: 30°   Ceiling: 4300
Heat Index: 30°   Visibility: 10mi
Dew Point: 29°   Wind: 0mph
Humidity: 97%   Direction: NA
Pressure: 30.33"   Gusts: NA
Location:  43.84°N, 71.4°W
Report Text: K1P1 212315Z AUTO 00000KT 10SM SCT037 OVC043 M01/M01 A3033 RMK AO2 T10111015
Loading
Personal Weather Stations






























Interactive Weather Map New forecast layout! Learn more

10-Day Weather Forecast

Advertisements
Track Severe Weather on mobile